Time;durP1;ratioP1;P1;durP2;ratioP2;P2;SDS_P1;SDS_P2;PMS_P1;PMS_P2;Temp;Humidity;BMP_temperature;BMP_pressure;BME280_temperature;BME280_humidity;BME280_pressure;Samples;Min_cycle;Max_cycle;Signal;HPM_P1;HPM_P2
2022/01/21 00:01:24;;;;;;;29.83;15.82;;;;;;;;;;5092843;28;20036;-74
2022/01/21 00:03:50;;;;;;;39.95;20.83;;;;;;;;;;5091670;28;20040;-74
2022/01/21 00:06:16;;;;;;;39.55;20.50;;;;;;;;;;5092573;28;20031;-74
2022/01/21 00:08:43;;;;;;;36.65;21.27;;;;;;;;;;5090966;28;20441;-74
2022/01/21 00:11:10;;;;;;;35.38;21.15;;;;;;;;;;5092419;28;20035;-74
2022/01/21 00:13:37;;;;;;;36.90;21.52;;;;;;;;;;5091382;28;20059;-74
2022/01/21 00:16:20;;;;;;;37.83;19.83;;;;;;;;;;5091171;28;20070;-74
2022/01/21 00:18:58;;;;;;;39.83;19.13;;;;;;;;;;5091469;28;20128;-74
2022/01/21 00:32:24;;;;;;;53.58;25.63;;;;;;;;;;5071436;28;20120;-74
2022/01/21 00:34:50;;;;;;;48.90;26.00;;;;;;;;;;5084500;28;20036;-74
2022/01/21 00:37:16;;;;;;;46.03;24.60;;;;;;;;;;5091258;28;20093;-75
2022/01/21 00:39:49;;;;;;;38.22;20.27;;;;;;;;;;5091655;28;20127;-74
2022/01/21 00:42:44;;;;;;;33.13;18.42;;;;;;;;;;5090778;28;20844;-74
2022/01/21 00:45:01;;;;;;;30.17;18.13;;;;;;;;;;5091416;28;20082;-74
2022/01/21 00:47:28;;;;;;;33.97;20.25;;;;;;;;;;5086184;28;20762;-74
2022/01/21 00:49:54;;;;;;;32.33;17.25;;;;;;;;;;5091428;28;20044;-74
2022/01/21 00:52:20;;;;;;;25.70;16.25;;;;;;;;;;5090021;28;20105;-74
2022/01/21 00:54:46;;;;;;;29.77;16.77;;;;;;;;;;5091099;28;20120;-74
2022/01/21 00:57:12;;;;;;;25.48;14.93;;;;;;;;;;5090161;28;20036;-74
2022/01/21 00:59:38;;;;;;;25.25;14.25;;;;;;;;;;5088120;28;20028;-74
2022/01/21 01:02:05;;;;;;;23.88;13.18;;;;;;;;;;5091104;28;20032;-74
2022/01/21 01:04:31;;;;;;;31.95;15.98;;;;;;;;;;5090296;28;20032;-74
2022/01/21 01:06:57;;;;;;;30.15;16.10;;;;;;;;;;5091213;28;20039;-74
2022/01/21 01:09:23;;;;;;;30.08;15.82;;;;;;;;;;5090383;28;20035;-75
2022/01/21 01:19:58;;;;;;;26.75;16.42;;;;;;;;;;5089858;28;20627;-74
2022/01/21 01:22:47;;;;;;;30.98;15.07;;;;;;;;;;5090743;28;20058;-74
2022/01/21 01:27:57;;;;;;;50.10;21.92;;;;;;;;;;5090621;28;20059;-74
2022/01/21 01:30:25;;;;;;;60.55;27.17;;;;;;;;;;5081336;28;20036;-74
2022/01/21 01:32:53;;;;;;;50.58;24.33;;;;;;;;;;5090264;28;20032;-74
2022/01/21 01:35:21;;;;;;;60.72;27.08;;;;;;;;;;5089885;28;20024;-74
2022/01/21 01:38:11;;;;;;;63.72;29.30;;;;;;;;;;5090277;28;20035;-74
2022/01/21 01:41:12;;;;;;;59.10;26.80;;;;;;;;;;5089704;28;20494;-74
2022/01/21 01:51:22;;;;;;;50.33;24.08;;;;;;;;;;5070558;28;20052;-74
2022/01/21 01:53:56;;;;;;;80.00;31.05;;;;;;;;;;5074208;28;20043;-74
2022/01/21 01:56:27;;;;;;;70.78;26.63;;;;;;;;;;5089697;28;20036;-74
2022/01/21 01:58:54;;;;;;;54.17;24.83;;;;;;;;;;5075850;28;20106;-74
2022/01/21 02:01:20;;;;;;;67.43;27.83;;;;;;;;;;5090227;28;20024;-74
2022/01/21 02:03:46;;;;;;;66.43;25.13;;;;;;;;;;5089070;28;20082;-74
2022/01/21 02:06:12;;;;;;;36.80;16.55;;;;;;;;;;5089709;28;20028;-74
2022/01/21 02:08:38;;;;;;;27.20;14.52;;;;;;;;;;5089043;28;20032;-74
2022/01/21 02:11:04;;;;;;;20.35;11.18;;;;;;;;;;5089935;28;20074;-74
2022/01/21 02:13:34;;;;;;;24.73;13.65;;;;;;;;;;5089807;28;20148;-73
2022/01/21 02:16:04;;;;;;;19.95;12.18;;;;;;;;;;5089945;28;20564;-74
2022/01/21 02:21:32;;;;;;;40.65;23.17;;;;;;;;;;5090178;28;20054;-74
2022/01/21 02:24:00;;;;;;;47.53;29.48;;;;;;;;;;5090114;28;20028;-74
2022/01/21 02:26:26;;;;;;;48.40;30.52;;;;;;;;;;5089806;28;20111;-73
2022/01/21 02:28:54;;;;;;;50.97;31.92;;;;;;;;;;5089077;28;20700;-74
2022/01/21 02:31:20;;;;;;;40.78;25.70;;;;;;;;;;5089675;28;20141;-74
2022/01/21 02:33:46;;;;;;;34.90;21.90;;;;;;;;;;5088929;28;20047;-74
2022/01/21 02:36:13;;;;;;;28.67;18.88;;;;;;;;;;5089890;28;20416;-74
2022/01/21 02:38:39;;;;;;;23.20;15.52;;;;;;;;;;5089648;28;20115;-74
2022/01/21 02:41:05;;;;;;;22.17;14.52;;;;;;;;;;5089840;28;20433;-74
2022/01/21 02:43:30;;;;;;;26.33;17.98;;;;;;;;;;5088851;28;20066;-74
2022/01/21 02:46:02;;;;;;;28.50;17.98;;;;;;;;;;5089477;28;20060;-74
2022/01/21 02:48:29;;;;;;;29.73;17.42;;;;;;;;;;5088351;28;20035;-74
2022/01/21 02:50:55;;;;;;;26.45;16.88;;;;;;;;;;5089407;28;20028;-74
2022/01/21 02:55:47;;;;;;;23.58;14.63;;;;;;;;;;5071733;28;20064;-74
2022/01/21 02:58:13;;;;;;;27.20;15.68;;;;;;;;;;5087696;28;20051;-74
2022/01/21 03:00:39;;;;;;;27.65;17.33;;;;;;;;;;5089870;28;20036;-74
2022/01/21 03:03:05;;;;;;;26.50;15.57;;;;;;;;;;5089310;28;20819;-74
2022/01/21 03:05:34;;;;;;;28.02;16.98;;;;;;;;;;5089412;28;20032;-74
2022/01/21 03:08:00;;;;;;;24.95;17.58;;;;;;;;;;5088814;28;20044;-74
2022/01/21 03:10:26;;;;;;;30.08;20.15;;;;;;;;;;5088757;28;20557;-74
2022/01/21 03:12:53;;;;;;;36.90;21.42;;;;;;;;;;5075231;28;20044;-74
2022/01/21 03:15:19;;;;;;;38.83;24.08;;;;;;;;;;5072292;28;20051;-74
2022/01/21 03:17:45;;;;;;;48.60;31.13;;;;;;;;;;5083098;28;20032;-74
2022/01/21 03:20:11;;;;;;;38.97;25.27;;;;;;;;;;5092858;28;20040;-74
2022/01/21 03:22:37;;;;;;;32.53;23.17;;;;;;;;;;5092210;28;20119;-74
2022/01/21 03:25:05;;;;;;;27.48;17.95;;;;;;;;;;5093256;28;20103;-74
2022/01/21 03:27:31;;;;;;;20.92;13.38;;;;;;;;;;5090373;28;20467;-74
2022/01/21 03:29:58;;;;;;;23.70;15.00;;;;;;;;;;5092897;28;20031;-74
2022/01/21 03:32:24;;;;;;;21.77;13.50;;;;;;;;;;5093063;28;20040;-74
2022/01/21 03:34:50;;;;;;;19.40;11.85;;;;;;;;;;5092801;28;20063;-75
2022/01/21 03:37:16;;;;;;;16.17;10.90;;;;;;;;;;5092683;28;20066;-74
2022/01/21 03:39:42;;;;;;;17.75;9.32;;;;;;;;;;5092146;28;20107;-74
2022/01/21 03:42:08;;;;;;;21.52;12.60;;;;;;;;;;5089049;28;20179;-74
2022/01/21 03:44:34;;;;;;;24.30;13.32;;;;;;;;;;5092384;28;20073;-74
2022/01/21 03:47:00;;;;;;;24.58;15.88;;;;;;;;;;5092536;28;20124;-74
2022/01/21 03:49:28;;;;;;;22.58;13.95;;;;;;;;;;5091262;28;20020;-74
2022/01/21 03:51:54;;;;;;;23.27;17.40;;;;;;;;;;5092548;28;20040;-74
2022/01/21 03:54:20;;;;;;;24.05;15.68;;;;;;;;;;5092102;28;20099;-74
2022/01/21 03:56:46;;;;;;;29.73;15.68;;;;;;;;;;5092000;28;20055;-74
2022/01/21 03:59:12;;;;;;;22.70;14.38;;;;;;;;;;5089870;28;20024;-74
2022/01/21 04:01:38;;;;;;;25.85;14.75;;;;;;;;;;5078312;28;20129;-74
2022/01/21 04:04:04;;;;;;;29.58;18.40;;;;;;;;;;5092082;28;20107;-74
2022/01/21 04:06:30;;;;;;;28.35;18.10;;;;;;;;;;5087465;28;20036;-74
2022/01/21 04:08:56;;;;;;;26.70;16.38;;;;;;;;;;5092144;28;20032;-74
2022/01/21 04:11:22;;;;;;;24.10;13.65;;;;;;;;;;5092083;28;20081;-74
2022/01/21 04:13:48;;;;;;;24.02;14.32;;;;;;;;;;5092239;28;20059;-74
2022/01/21 04:16:14;;;;;;;22.48;14.13;;;;;;;;;;5084784;28;20039;-74
2022/01/21 04:18:40;;;;;;;30.95;18.90;;;;;;;;;;5091413;28;20073;-74
2022/01/21 04:21:06;;;;;;;29.08;18.08;;;;;;;;;;5091654;28;20043;-74
2022/01/21 04:23:33;;;;;;;26.05;16.30;;;;;;;;;;5088664;28;20043;-74
2022/01/21 04:25:59;;;;;;;26.98;15.18;;;;;;;;;;5090907;28;20386;-74
2022/01/21 04:28:25;;;;;;;27.33;14.70;;;;;;;;;;5091709;28;20032;-74
2022/01/21 04:30:51;;;;;;;21.27;12.15;;;;;;;;;;5090990;28;20043;-74
2022/01/21 04:33:17;;;;;;;18.55;9.95;;;;;;;;;;5091738;28;20035;-74
2022/01/21 04:35:43;;;;;;;17.42;9.02;;;;;;;;;;5091712;28;20028;-74
2022/01/21 04:38:12;;;;;;;17.00;9.50;;;;;;;;;;5091898;28;20036;-74
2022/01/21 04:40:52;;;;;;;15.75;8.55;;;;;;;;;;5071626;28;20039;-74
2022/01/21 04:48:48;;;;;;;29.00;13.80;;;;;;;;;;5088006;28;20035;-75
2022/01/21 04:51:26;;;;;;;26.70;13.27;;;;;;;;;;5091302;28;20032;-74
2022/01/21 04:53:52;;;;;;;20.38;10.52;;;;;;;;;;5087233;28;20059;-74
2022/01/21 04:56:18;;;;;;;18.90;10.77;;;;;;;;;;5091447;28;20039;-74
2022/01/21 04:58:45;;;;;;;21.35;9.52;;;;;;;;;;5090905;28;20824;-74
2022/01/21 05:01:11;;;;;;;16.73;10.00;;;;;;;;;;5091510;28;20032;-74
2022/01/21 05:03:39;;;;;;;36.72;18.77;;;;;;;;;;5090530;28;20579;-74
2022/01/21 05:06:05;;;;;;;38.30;19.73;;;;;;;;;;5091480;28;20032;-74
2022/01/21 05:08:46;;;;;;;38.22;19.85;;;;;;;;;;5091143;28;20032;-74
2022/01/21 05:11:13;;;;;;;29.00;16.38;;;;;;;;;;5090974;28;20059;-74
2022/01/21 05:13:51;;;;;;;31.75;18.40;;;;;;;;;;5090581;28;20035;-74
2022/01/21 05:18:46;;;;;;;24.83;14.02;;;;;;;;;;5087287;28;20101;-74
2022/01/21 05:21:12;;;;;;;24.30;12.90;;;;;;;;;;5090649;28;20408;-74
2022/01/21 05:23:38;;;;;;;19.20;12.35;;;;;;;;;;5090855;28;20028;-74
2022/01/21 05:26:04;;;;;;;19.88;10.73;;;;;;;;;;5090205;28;20114;-74
2022/01/21 05:28:30;;;;;;;16.73;10.27;;;;;;;;;;5090714;28;20036;-74
2022/01/21 05:30:56;;;;;;;14.68;9.90;;;;;;;;;;5089995;28;20177;-74
2022/01/21 05:33:22;;;;;;;18.95;10.80;;;;;;;;;;5090710;28;20032;-74
2022/01/21 05:35:48;;;;;;;21.95;11.82;;;;;;;;;;5089848;28;20031;-74
2022/01/21 05:38:14;;;;;;;19.13;12.07;;;;;;;;;;5090882;28;20479;-74
2022/01/21 05:40:42;;;;;;;20.98;12.10;;;;;;;;;;5090067;28;20398;-74
2022/01/21 05:43:08;;;;;;;19.80;12.75;;;;;;;;;;5089805;28;20024;-74
2022/01/21 05:48:19;;;;;;;20.95;13.02;;;;;;;;;;5078689;28;20822;-74
2022/01/21 05:50:45;;;;;;;18.05;10.80;;;;;;;;;;5090855;28;20040;-74
2022/01/21 05:53:12;;;;;;;19.33;10.95;;;;;;;;;;5090481;28;20036;-74
2022/01/21 05:55:41;;;;;;;16.67;10.05;;;;;;;;;;5090095;28;20674;-74
2022/01/21 05:58:08;;;;;;;22.27;12.25;;;;;;;;;;5082185;28;20039;-73
2022/01/21 06:00:34;;;;;;;28.25;14.13;;;;;;;;;;5086052;28;20055;-74
2022/01/21 06:03:00;;;;;;;21.40;14.00;;;;;;;;;;5090112;28;20047;-74
2022/01/21 06:05:31;;;;;;;21.80;12.55;;;;;;;;;;5089678;28;20142;-74
2022/01/21 06:07:57;;;;;;;23.88;13.85;;;;;;;;;;5089885;28;20071;-74
2022/01/21 06:10:23;;;;;;;24.95;14.68;;;;;;;;;;5089870;28;20043;-73
2022/01/21 06:12:49;;;;;;;20.92;12.98;;;;;;;;;;5087068;28;20040;-74
2022/01/21 06:15:15;;;;;;;21.17;12.07;;;;;;;;;;5088570;28;20453;-74
2022/01/21 06:17:41;;;;;;;25.35;12.93;;;;;;;;;;5085996;28;20396;-74
2022/01/21 06:20:07;;;;;;;26.15;14.05;;;;;;;;;;5089585;28;20048;-74
2022/01/21 06:22:33;;;;;;;20.40;11.32;;;;;;;;;;5088086;28;20059;-73
2022/01/21 06:24:59;;;;;;;25.02;13.32;;;;;;;;;;5089064;28;20024;-74
2022/01/21 06:27:27;;;;;;;29.00;16.35;;;;;;;;;;5082799;28;20036;-74
2022/01/21 06:29:54;;;;;;;40.47;19.13;;;;;;;;;;5089619;28;20028;-74
2022/01/21 06:32:20;;;;;;;37.63;18.25;;;;;;;;;;5088315;28;20059;-74
2022/01/21 06:34:46;;;;;;;36.20;16.83;;;;;;;;;;5083829;28;20028;-75
2022/01/21 06:37:12;;;;;;;32.60;16.10;;;;;;;;;;5088108;28;20368;-74
2022/01/21 06:39:38;;;;;;;32.17;15.43;;;;;;;;;;5070212;28;20031;-74
2022/01/21 06:42:04;;;;;;;34.47;17.23;;;;;;;;;;5083830;28;20039;-75
2022/01/21 06:44:30;;;;;;;31.80;16.85;;;;;;;;;;5084824;28;20209;-75
2022/01/21 06:46:56;;;;;;;30.10;16.35;;;;;;;;;;5086826;28;20044;-75
2022/01/21 06:49:22;;;;;;;33.10;17.20;;;;;;;;;;5088449;28;20039;-75
2022/01/21 06:51:48;;;;;;;34.97;18.50;;;;;;;;;;5069427;28;20032;-75
2022/01/21 06:54:14;;;;;;;38.08;19.13;;;;;;;;;;5086224;28;20525;-75
2022/01/21 06:56:40;;;;;;;59.05;29.17;;;;;;;;;;5089487;28;20117;-75
2022/01/21 06:59:06;;;;;;;53.88;27.80;;;;;;;;;;5087132;28;20153;-75
2022/01/21 07:01:32;;;;;;;36.53;19.05;;;;;;;;;;5089368;28;20032;-75
2022/01/21 07:03:58;;;;;;;38.22;18.10;;;;;;;;;;5072328;28;20025;-75
2022/01/21 07:06:24;;;;;;;35.33;20.00;;;;;;;;;;5083526;28;20043;-75
2022/01/21 07:08:50;;;;;;;37.03;18.50;;;;;;;;;;5087171;28;20184;-75
2022/01/21 07:11:16;;;;;;;36.10;17.80;;;;;;;;;;5087692;28;20044;-74
2022/01/21 07:13:42;;;;;;;34.20;17.13;;;;;;;;;;5073562;28;20032;-74
2022/01/21 07:16:08;;;;;;;34.97;17.67;;;;;;;;;;5077971;28;20074;-75
2022/01/21 07:18:34;;;;;;;35.10;19.98;;;;;;;;;;5088839;28;20081;-75
2022/01/21 07:21:00;;;;;;;41.28;19.23;;;;;;;;;;5088767;28;20040;-74
2022/01/21 07:23:26;;;;;;;33.97;16.25;;;;;;;;;;5087575;28;20036;-75
2022/01/21 07:25:52;;;;;;;33.38;15.85;;;;;;;;;;5088124;28;20394;-75
2022/01/21 07:28:19;;;;;;;30.98;17.10;;;;;;;;;;5078124;28;20560;-75
2022/01/21 07:30:45;;;;;;;33.15;15.07;;;;;;;;;;5077434;28;20467;-75
2022/01/21 07:33:13;;;;;;;42.53;19.35;;;;;;;;;;5077068;28;20043;-75
2022/01/21 07:35:39;;;;;;;36.97;18.92;;;;;;;;;;5081679;28;20054;-75
2022/01/21 07:38:05;;;;;;;37.88;17.70;;;;;;;;;;5088721;28;20035;-74
2022/01/21 07:40:31;;;;;;;32.65;16.40;;;;;;;;;;5088626;28;20034;-75
2022/01/21 07:42:57;;;;;;;37.80;16.58;;;;;;;;;;5088237;28;20032;-75
2022/01/21 07:45:23;;;;;;;30.45;14.52;;;;;;;;;;5088138;28;20039;-75
2022/01/21 07:47:49;;;;;;;28.42;14.10;;;;;;;;;;5088972;28;20032;-75
2022/01/21 07:50:16;;;;;;;41.75;21.10;;;;;;;;;;5086818;28;20028;-75
2022/01/21 07:52:42;;;;;;;47.42;25.40;;;;;;;;;;5084740;28;20064;-75
2022/01/21 07:55:08;;;;;;;43.78;23.73;;;;;;;;;;5088835;28;20028;-75
2022/01/21 07:57:35;;;;;;;46.97;22.92;;;;;;;;;;5088535;28;20028;-75
2022/01/21 08:00:01;;;;;;;41.88;21.95;;;;;;;;;;5088691;28;20115;-75
2022/01/21 08:02:28;;;;;;;54.65;26.73;;;;;;;;;;5087482;28;20081;-75
2022/01/21 08:04:55;;;;;;;64.28;33.40;;;;;;;;;;5092441;28;20111;-75
2022/01/21 08:07:21;;;;;;;70.30;37.70;;;;;;;;;;5091505;28;20067;-75
2022/01/21 08:09:49;;;;;;;57.28;26.63;;;;;;;;;;5092350;28;20036;-75
2022/01/21 08:12:16;;;;;;;48.28;25.13;;;;;;;;;;5089221;28;20027;-75
2022/01/21 08:14:43;;;;;;;42.33;23.20;;;;;;;;;;5083770;28;20371;-75
2022/01/21 08:17:09;;;;;;;41.47;21.77;;;;;;;;;;5091193;28;20115;-75
2022/01/21 08:19:35;;;;;;;41.83;22.52;;;;;;;;;;5092038;28;20048;-75
2022/01/21 08:22:01;;;;;;;47.05;24.45;;;;;;;;;;5091270;28;20036;-75
2022/01/21 08:24:27;;;;;;;43.55;23.27;;;;;;;;;;5091891;28;20031;-75
2022/01/21 08:26:53;;;;;;;53.17;25.50;;;;;;;;;;5090577;28;20045;-75
2022/01/21 08:29:19;;;;;;;47.45;23.20;;;;;;;;;;5087583;28;20067;-75
2022/01/21 08:31:45;;;;;;;57.42;26.83;;;;;;;;;;5091267;28;20094;-75
2022/01/21 08:34:13;;;;;;;60.30;28.60;;;;;;;;;;5083327;28;20028;-75
2022/01/21 08:36:39;;;;;;;62.90;27.30;;;;;;;;;;5078435;28;20614;-75
2022/01/21 08:39:06;;;;;;;58.40;29.38;;;;;;;;;;5091115;28;20470;-75
2022/01/21 08:41:32;;;;;;;71.55;35.58;;;;;;;;;;5092150;28;20031;-75
2022/01/21 08:43:58;;;;;;;64.65;33.90;;;;;;;;;;5086185;28;20130;-75
2022/01/21 08:46:24;;;;;;;47.28;24.42;;;;;;;;;;5090910;28;20058;-75
2022/01/21 08:48:51;;;;;;;53.55;25.70;;;;;;;;;;5091236;28;20036;-74
2022/01/21 08:51:26;;;;;;;50.30;29.40;;;;;;;;;;5091236;28;20478;-75
2022/01/21 08:53:52;;;;;;;51.40;29.33;;;;;;;;;;5091626;28;20040;-75
2022/01/21 08:56:18;;;;;;;43.58;24.90;;;;;;;;;;5090636;28;20032;-75
2022/01/21 08:58:45;;;;;;;32.88;18.08;;;;;;;;;;5091225;28;20041;-75
2022/01/21 09:01:12;;;;;;;31.67;15.45;;;;;;;;;;5091056;28;20055;-75
2022/01/21 09:03:39;;;;;;;25.90;14.07;;;;;;;;;;5091515;28;20089;-75
2022/01/21 09:06:05;;;;;;;23.55;13.18;;;;;;;;;;5083247;28;20948;-75
2022/01/21 09:08:32;;;;;;;34.28;19.80;;;;;;;;;;5090689;28;20036;-75
2022/01/21 09:10:59;;;;;;;34.63;20.23;;;;;;;;;;5090661;28;20027;-75
2022/01/21 09:13:28;;;;;;;35.85;19.60;;;;;;;;;;5080031;28;20066;-75
2022/01/21 09:15:58;;;;;;;26.60;15.63;;;;;;;;;;5085671;28;20038;-75
2022/01/21 09:18:25;;;;;;;20.60;11.88;;;;;;;;;;5090096;28;20619;-75
2022/01/21 09:20:51;;;;;;;19.02;9.48;;;;;;;;;;5077881;28;20029;-75
2022/01/21 09:23:17;;;;;;;29.70;20.10;;;;;;;;;;5088883;28;20106;-75
2022/01/21 09:25:43;;;;;;;31.90;17.98;;;;;;;;;;5090939;28;20036;-74
2022/01/21 09:28:10;;;;;;;17.90;11.57;;;;;;;;;;5090143;28;20089;-75
2022/01/21 09:30:36;;;;;;;21.45;12.65;;;;;;;;;;5090448;28;20040;-75
2022/01/21 09:33:02;;;;;;;23.63;13.07;;;;;;;;;;5084378;28;20111;-75
2022/01/21 09:35:28;;;;;;;19.77;10.93;;;;;;;;;;5090718;28;20040;-75
2022/01/21 09:37:54;;;;;;;21.60;10.15;;;;;;;;;;5089985;28;20578;-75
2022/01/21 09:40:21;;;;;;;18.30;8.45;;;;;;;;;;5072737;28;20112;-75
2022/01/21 09:42:48;;;;;;;18.33;8.90;;;;;;;;;;5089417;28;20028;-75
2022/01/21 09:45:18;;;;;;;21.13;13.55;;;;;;;;;;5090166;28;20719;-75
2022/01/21 09:47:47;;;;;;;16.90;9.75;;;;;;;;;;5089296;28;20062;-75
2022/01/21 09:50:16;;;;;;;17.85;7.85;;;;;;;;;;5090133;28;20040;-74
2022/01/21 09:52:43;;;;;;;12.95;6.68;;;;;;;;;;5089116;28;20032;-75
2022/01/21 09:55:09;;;;;;;12.98;5.72;;;;;;;;;;5089714;28;20036;-74
2022/01/21 09:57:36;;;;;;;13.45;4.53;;;;;;;;;;5084456;28;20033;-75
2022/01/21 10:00:04;;;;;;;10.85;4.15;;;;;;;;;;5089647;28;20032;-74
2022/01/21 10:02:30;;;;;;;29.27;14.70;;;;;;;;;;5088125;28;20025;-75
2022/01/21 10:04:57;;;;;;;53.53;21.20;;;;;;;;;;5089521;28;20520;-75
2022/01/21 10:07:24;;;;;;;99.40;44.70;;;;;;;;;;5085602;28;20831;-75
2022/01/21 10:09:51;;;;;;;73.05;32.80;;;;;;;;;;5085908;28;20028;-74
2022/01/21 10:12:17;;;;;;;55.70;19.60;;;;;;;;;;5089085;28;20035;-75
2022/01/21 10:14:44;;;;;;;34.15;12.85;;;;;;;;;;5082943;28;20119;-75
2022/01/21 10:17:10;;;;;;;59.10;27.20;;;;;;;;;;5081124;28;20036;-74
2022/01/21 10:19:38;;;;;;;65.68;32.55;;;;;;;;;;5070340;28;20088;-75
2022/01/21 10:22:05;;;;;;;34.47;13.60;;;;;;;;;;5089774;28;20027;-75
2022/01/21 10:24:32;;;;;;;60.05;26.10;;;;;;;;;;5083798;28;20028;-75
2022/01/21 10:26:59;;;;;;;44.83;20.88;;;;;;;;;;5077143;28;20055;-75
2022/01/21 10:29:34;;;;;;;22.40;10.80;;;;;;;;;;5076572;28;20032;-74
2022/01/21 10:32:01;;;;;;;23.60;9.07;;;;;;;;;;5083646;28;20051;-75
2022/01/21 10:34:40;;;;;;;29.77;12.77;;;;;;;;;;5069935;28;20473;-75
2022/01/21 10:37:26;;;;;;;38.53;17.75;;;;;;;;;;5071851;28;20044;-75
2022/01/21 10:39:55;;;;;;;16.50;9.15;;;;;;;;;;5072643;28;20043;-75
2022/01/21 10:42:22;;;;;;;19.10;7.47;;;;;;;;;;5076179;28;20039;-74
2022/01/21 10:44:49;;;;;;;13.50;6.07;;;;;;;;;;5088954;28;20043;-75
2022/01/21 10:47:15;;;;;;;14.10;5.57;;;;;;;;;;5088770;28;20028;-75
2022/01/21 10:49:44;;;;;;;16.50;5.20;;;;;;;;;;5081610;28;20414;-75
2022/01/21 10:52:11;;;;;;;11.65;4.90;;;;;;;;;;5086992;28;20536;-75
2022/01/21 10:54:41;;;;;;;14.00;5.72;;;;;;;;;;5084377;28;20115;-75
2022/01/21 10:57:07;;;;;;;12.43;4.95;;;;;;;;;;5085189;28;20553;-74
2022/01/21 10:59:46;;;;;;;13.35;3.60;;;;;;;;;;5088498;28;20853;-75
2022/01/21 11:02:12;;;;;;;11.73;3.00;;;;;;;;;;5087938;28;20107;-72
2022/01/21 11:04:42;;;;;;;9.55;2.78;;;;;;;;;;5087712;28;20082;-75
2022/01/21 11:07:10;;;;;;;9.82;2.60;;;;;;;;;;5088162;28;20028;-75
2022/01/21 11:09:39;;;;;;;12.98;5.13;;;;;;;;;;5086245;28;20058;-75
2022/01/21 11:12:10;;;;;;;10.70;2.92;;;;;;;;;;5088062;28;20051;-75
2022/01/21 11:14:36;;;;;;;7.55;2.80;;;;;;;;;;5068618;28;20229;-75
2022/01/21 11:17:15;;;;;;;14.98;4.18;;;;;;;;;;5082277;28;20050;-75
2022/01/21 11:20:00;;;;;;;8.65;3.25;;;;;;;;;;5088572;28;20143;-72
2022/01/21 11:22:26;;;;;;;10.57;3.50;;;;;;;;;;5085669;28;20040;-72
2022/01/21 11:24:53;;;;;;;13.38;4.32;;;;;;;;;;5087982;28;20029;-73
2022/01/21 11:27:20;;;;;;;12.55;3.80;;;;;;;;;;5077581;28;20047;-73
2022/01/21 11:29:47;;;;;;;14.30;3.90;;;;;;;;;;5088849;28;20027;-72
2022/01/21 11:32:14;;;;;;;14.20;5.03;;;;;;;;;;5083672;28;20105;-72
2022/01/21 11:34:42;;;;;;;13.48;4.47;;;;;;;;;;5083956;28;20032;-73
2022/01/21 11:37:08;;;;;;;11.57;4.22;;;;;;;;;;5092127;28;20043;-72
2022/01/21 11:39:35;;;;;;;12.63;5.00;;;;;;;;;;5085022;28;20082;-72
2022/01/21 11:42:03;;;;;;;7.53;2.40;;;;;;;;;;5091720;28;20040;-72
2022/01/21 11:44:30;;;;;;;5.60;1.88;;;;;;;;;;5086475;28;20588;-72
2022/01/21 11:49:26;;;;;;;13.90;6.90;;;;;;;;;;5075239;28;20046;-72
2022/01/21 11:52:07;;;;;;;15.70;6.20;;;;;;;;;;5091918;28;20043;-72
2022/01/21 11:54:36;;;;;;;14.93;4.68;;;;;;;;;;5088785;28;20059;-72
2022/01/21 11:57:04;;;;;;;6.97;1.95;;;;;;;;;;5091797;28;20036;-72
2022/01/21 11:59:35;;;;;;;24.52;9.88;;;;;;;;;;5085485;28;20020;-72
2022/01/21 12:02:16;;;;;;;14.82;5.82;;;;;;;;;;5091620;28;20027;-73
2022/01/21 12:04:42;;;;;;;8.73;2.10;;;;;;;;;;5089306;28;20028;-72
2022/01/21 12:07:27;;;;;;;9.63;1.83;;;;;;;;;;5092063;28;20038;-72
2022/01/21 12:09:57;;;;;;;4.68;1.40;;;;;;;;;;5084026;28;20032;-72
2022/01/21 12:12:42;;;;;;;5.88;1.25;;;;;;;;;;5091121;28;20040;-73
2022/01/21 12:15:10;;;;;;;7.18;1.80;;;;;;;;;;5083210;28;20045;-72
2022/01/21 12:17:48;;;;;;;8.57;1.77;;;;;;;;;;5089885;28;20570;-72
2022/01/21 12:20:14;;;;;;;8.82;1.70;;;;;;;;;;5090626;28;20045;-73
2022/01/21 12:22:40;;;;;;;7.20;1.65;;;;;;;;;;5088437;28;20093;-72
2022/01/21 12:25:10;;;;;;;6.90;1.73;;;;;;;;;;5090927;28;20136;-72
2022/01/21 12:27:37;;;;;;;6.38;1.35;;;;;;;;;;5076478;28;20127;-72
2022/01/21 12:30:23;;;;;;;9.07;2.15;;;;;;;;;;5082496;28;20062;-72
2022/01/21 12:32:52;;;;;;;5.88;1.73;;;;;;;;;;5086767;28;20058;-73
2022/01/21 12:35:19;;;;;;;4.50;1.33;;;;;;;;;;5090398;28;20020;-72
2022/01/21 12:39:09;;;;;;;9.00;1.90;;;;;;;;;;5091545;28;20038;-72
2022/01/21 12:41:31;;;;;;;7.57;1.67;;;;;;;;;;5021665;28;20068;-72
2022/01/21 12:44:06;;;;;;;7.22;1.30;;;;;;;;;;5020565;28;20042;-72
2022/01/21 12:46:38;;;;;;;6.03;1.50;;;;;;;;;;5074016;28;20552;-72
2022/01/21 12:49:23;;;;;;;8.02;2.95;;;;;;;;;;5090528;28;20039;-72
2022/01/21 12:52:30;;;;;;;12.35;5.13;;;;;;;;;;5086010;28;20028;-72
2022/01/21 12:57:29;;;;;;;7.35;2.08;;;;;;;;;;5085328;28;20128;-72
2022/01/21 12:59:56;;;;;;;5.10;1.30;;;;;;;;;;5091225;28;20405;-72
2022/01/21 13:02:23;;;;;;;6.80;1.67;;;;;;;;;;5082056;28;20062;-72
2022/01/21 13:05:00;;;;;;;7.43;2.03;;;;;;;;;;5087008;28;20545;-72
2022/01/21 13:07:45;;;;;;;10.20;1.45;;;;;;;;;;5090456;28;20074;-72
2022/01/21 13:10:22;;;;;;;7.55;1.38;;;;;;;;;;5089795;28;20054;-72
2022/01/21 13:15:46;;;;;;;9.18;1.38;;;;;;;;;;5089646;28;20105;-72
2022/01/21 13:18:14;;;;;;;7.18;2.00;;;;;;;;;;5088267;28;20136;-72
2022/01/21 13:20:42;;;;;;;4.47;1.42;;;;;;;;;;5089836;28;20658;-72
2022/01/21 13:23:09;;;;;;;6.20;1.80;;;;;;;;;;5080352;28;20033;-72
2022/01/21 13:25:36;;;;;;;9.15;2.03;;;;;;;;;;5077672;28;20024;-72
2022/01/21 13:28:03;;;;;;;5.78;1.75;;;;;;;;;;5085027;28;20486;-72
2022/01/21 13:30:31;;;;;;;6.85;2.05;;;;;;;;;;5081791;28;20036;-72
2022/01/21 13:33:00;;;;;;;7.80;1.92;;;;;;;;;;5085796;28;20113;-72
2022/01/21 13:35:26;;;;;;;5.55;1.60;;;;;;;;;;5089952;28;20115;-72
2022/01/21 13:38:04;;;;;;;7.60;2.63;;;;;;;;;;5070913;28;20593;-72
2022/01/21 13:40:34;;;;;;;6.97;2.58;;;;;;;;;;5090081;28;20024;-72
2022/01/21 13:43:07;;;;;;;10.05;3.90;;;;;;;;;;5090298;28;20060;-72
2022/01/21 13:45:33;;;;;;;11.73;4.00;;;;;;;;;;5083592;28;20071;-72
2022/01/21 13:48:02;;;;;;;9.40;3.08;;;;;;;;;;5090210;28;20064;-72
2022/01/21 13:50:30;;;;;;;7.95;3.13;;;;;;;;;;5083349;28;20139;-72
2022/01/21 13:53:00;;;;;;;18.63;10.27;;;;;;;;;;5090347;28;20038;-72
2022/01/21 13:55:29;;;;;;;10.13;3.95;;;;;;;;;;5080275;28;20116;-75
2022/01/21 13:57:56;;;;;;;11.13;3.03;;;;;;;;;;5089460;28;20062;-74
2022/01/21 14:00:26;;;;;;;9.05;2.92;;;;;;;;;;5088576;28;20028;-74
2022/01/21 14:03:08;;;;;;;10.20;2.95;;;;;;;;;;5088226;28;20038;-75
2022/01/21 14:05:48;;;;;;;13.88;4.10;;;;;;;;;;5081933;28;20109;-74
2022/01/21 14:08:15;;;;;;;11.80;3.42;;;;;;;;;;5089495;28;20069;-75
2022/01/21 14:10:41;;;;;;;9.13;3.45;;;;;;;;;;5085203;28;20032;-74
2022/01/21 14:13:07;;;;;;;9.65;1.98;;;;;;;;;;5074161;28;20032;-74
2022/01/21 14:15:34;;;;;;;22.13;8.27;;;;;;;;;;5089028;28;20032;-75
2022/01/21 14:18:00;;;;;;;18.55;8.63;;;;;;;;;;5089111;28;20035;-74
2022/01/21 14:20:27;;;;;;;18.98;7.18;;;;;;;;;;5088958;28;20032;-75
2022/01/21 14:22:53;;;;;;;15.63;6.70;;;;;;;;;;5089559;28;20028;-75
2022/01/21 14:25:19;;;;;;;15.13;7.07;;;;;;;;;;5087607;28;20024;-72
2022/01/21 14:27:50;;;;;;;14.45;6.75;;;;;;;;;;5080194;28;20054;-72
2022/01/21 14:30:17;;;;;;;12.07;4.53;;;;;;;;;;5086646;28;20027;-72
2022/01/21 14:32:48;;;;;;;14.05;3.53;;;;;;;;;;5089486;28;20035;-73
2022/01/21 14:35:25;;;;;;;13.45;4.28;;;;;;;;;;5087357;28;20032;-74
2022/01/21 14:37:53;;;;;;;11.77;4.03;;;;;;;;;;5082857;28;20032;-75
2022/01/21 14:40:23;;;;;;;11.25;3.88;;;;;;;;;;5088716;28;20463;-74
2022/01/21 14:42:49;;;;;;;11.50;4.00;;;;;;;;;;5089564;28;20028;-75
2022/01/21 14:45:15;;;;;;;29.45;10.88;;;;;;;;;;5083202;28;20840;-75
2022/01/21 14:47:42;;;;;;;30.25;10.90;;;;;;;;;;5088169;28;20709;-74
2022/01/21 14:50:11;;;;;;;27.17;10.73;;;;;;;;;;5088330;28;20035;-75
2022/01/21 14:52:43;;;;;;;21.15;9.55;;;;;;;;;;5083669;28;20033;-74
2022/01/21 14:55:12;;;;;;;79.07;28.33;;;;;;;;;;5086684;28;20112;-75
2022/01/21 14:57:38;;;;;;;63.17;23.80;;;;;;;;;;5088158;28;20085;-74
2022/01/21 15:00:08;;;;;;;63.33;23.30;;;;;;;;;;5079366;28;20070;-74
2022/01/21 15:02:35;;;;;;;55.28;20.77;;;;;;;;;;5080188;28;20039;-74
2022/01/21 15:05:04;;;;;;;34.55;12.57;;;;;;;;;;5085809;28;20069;-75
2022/01/21 15:07:31;;;;;;;37.38;10.35;;;;;;;;;;5083330;28;20044;-74
2022/01/21 15:10:01;;;;;;;32.95;9.63;;;;;;;;;;5090402;28;20035;-75
2022/01/21 15:15:28;;;;;;;26.63;9.55;;;;;;;;;;5065870;28;20774;-75
2022/01/21 15:17:54;;;;;;;20.80;8.15;;;;;;;;;;5091205;28;20036;-74
2022/01/21 15:20:24;;;;;;;17.10;4.60;;;;;;;;;;5092704;28;20040;-75
2022/01/21 15:22:50;;;;;;;13.25;5.45;;;;;;;;;;5092346;28;20036;-75
2022/01/21 15:25:16;;;;;;;33.13;13.48;;;;;;;;;;5090575;28;20032;-75
2022/01/21 15:27:43;;;;;;;45.33;16.50;;;;;;;;;;5081690;28;20406;-75